sensor_id;sensor_type;location;lat;lon;timestamp;P1;durP1;ratioP1;P2;durP2;ratioP2
23449;SDS011;11897;45.438;12.128;2023-06-26T00:02:25;4.97;;;2.95;;
23449;SDS011;11897;45.438;12.128;2023-06-26T00:04:52;3.00;;;2.10;;
23449;SDS011;11897;45.438;12.128;2023-06-26T00:07:19;3.50;;;2.42;;
23449;SDS011;11897;45.438;12.128;2023-06-26T00:09:46;3.65;;;2.20;;
23449;SDS011;11897;45.438;12.128;2023-06-26T00:12:13;3.78;;;2.30;;
23449;SDS011;11897;45.438;12.128;2023-06-26T00:14:41;3.72;;;2.55;;
23449;SDS011;11897;45.438;12.128;2023-06-26T00:17:07;4.03;;;2.80;;
23449;SDS011;11897;45.438;12.128;2023-06-26T00:19:34;4.47;;;2.63;;
23449;SDS011;11897;45.438;12.128;2023-06-26T00:22:01;5.30;;;2.60;;
23449;SDS011;11897;45.438;12.128;2023-06-26T00:24:27;4.18;;;2.65;;
23449;SDS011;11897;45.438;12.128;2023-06-26T00:26:54;4.38;;;2.65;;
23449;SDS011;11897;45.438;12.128;2023-06-26T00:29:21;4.95;;;2.47;;
23449;SDS011;11897;45.438;12.128;2023-06-26T00:31:49;4.35;;;2.63;;
23449;SDS011;11897;45.438;12.128;2023-06-26T00:34:16;4.65;;;2.67;;
23449;SDS011;11897;45.438;12.128;2023-06-26T00:36:45;4.07;;;2.53;;
23449;SDS011;11897;45.438;12.128;2023-06-26T00:39:12;5.93;;;2.80;;
23449;SDS011;11897;45.438;12.128;2023-06-26T00:41:40;3.33;;;2.50;;
23449;SDS011;11897;45.438;12.128;2023-06-26T00:44:07;5.28;;;2.53;;
23449;SDS011;11897;45.438;12.128;2023-06-26T00:46:33;6.20;;;2.55;;
23449;SDS011;11897;45.438;12.128;2023-06-26T00:49:02;4.35;;;2.72;;
23449;SDS011;11897;45.438;12.128;2023-06-26T00:51:30;4.50;;;3.15;;
23449;SDS011;11897;45.438;12.128;2023-06-26T00:53:57;6.03;;;3.58;;
23449;SDS011;11897;45.438;12.128;2023-06-26T00:56:24;5.35;;;3.15;;
23449;SDS011;11897;45.438;12.128;2023-06-26T00:58:50;5.93;;;3.28;;
23449;SDS011;11897;45.438;12.128;2023-06-26T01:01:17;6.75;;;3.17;;
23449;SDS011;11897;45.438;12.128;2023-06-26T01:03:48;5.25;;;3.00;;
23449;SDS011;11897;45.438;12.128;2023-06-26T01:06:19;5.00;;;3.25;;
23449;SDS011;11897;45.438;12.128;2023-06-26T01:08:46;5.20;;;3.08;;
23449;SDS011;11897;45.438;12.128;2023-06-26T01:11:13;4.38;;;3.13;;
23449;SDS011;11897;45.438;12.128;2023-06-26T01:13:40;5.38;;;3.45;;
23449;SDS011;11897;45.438;12.128;2023-06-26T01:16:07;9.48;;;3.63;;
23449;SDS011;11897;45.438;12.128;2023-06-26T01:18:35;5.25;;;2.88;;
23449;SDS011;11897;45.438;12.128;2023-06-26T01:21:09;4.75;;;2.70;;
23449;SDS011;11897;45.438;12.128;2023-06-26T01:23:39;3.85;;;2.92;;
23449;SDS011;11897;45.438;12.128;2023-06-26T01:26:16;3.45;;;2.50;;
23449;SDS011;11897;45.438;12.128;2023-06-26T01:28:44;4.80;;;2.70;;
23449;SDS011;11897;45.438;12.128;2023-06-26T01:31:11;3.63;;;2.70;;
23449;SDS011;11897;45.438;12.128;2023-06-26T01:33:38;4.90;;;2.92;;
23449;SDS011;11897;45.438;12.128;2023-06-26T01:36:05;5.15;;;3.10;;
23449;SDS011;11897;45.438;12.128;2023-06-26T01:38:34;5.95;;;3.25;;
23449;SDS011;11897;45.438;12.128;2023-06-26T01:41:01;4.40;;;2.85;;
23449;SDS011;11897;45.438;12.128;2023-06-26T01:43:31;4.72;;;2.63;;
23449;SDS011;11897;45.438;12.128;2023-06-26T01:46:03;5.38;;;2.90;;
23449;SDS011;11897;45.438;12.128;2023-06-26T01:48:32;5.03;;;3.05;;
23449;SDS011;11897;45.438;12.128;2023-06-26T01:51:01;5.50;;;3.08;;
23449;SDS011;11897;45.438;12.128;2023-06-26T01:53:31;4.22;;;2.42;;
23449;SDS011;11897;45.438;12.128;2023-06-26T01:55:59;4.90;;;2.75;;
23449;SDS011;11897;45.438;12.128;2023-06-26T01:58:27;5.45;;;2.78;;
23449;SDS011;11897;45.438;12.128;2023-06-26T02:00:56;3.75;;;2.50;;
23449;SDS011;11897;45.438;12.128;2023-06-26T02:03:22;3.30;;;2.65;;
23449;SDS011;11897;45.438;12.128;2023-06-26T02:05:50;3.42;;;2.30;;
23449;SDS011;11897;45.438;12.128;2023-06-26T02:08:17;4.72;;;2.80;;
23449;SDS011;11897;45.438;12.128;2023-06-26T02:10:48;4.40;;;3.00;;
23449;SDS011;11897;45.438;12.128;2023-06-26T02:13:15;6.00;;;2.97;;
23449;SDS011;11897;45.438;12.128;2023-06-26T02:15:42;4.53;;;2.50;;
23449;SDS011;11897;45.438;12.128;2023-06-26T02:18:10;5.07;;;2.45;;
23449;SDS011;11897;45.438;12.128;2023-06-26T02:20:37;6.10;;;3.28;;
23449;SDS011;11897;45.438;12.128;2023-06-26T02:23:04;4.47;;;3.00;;
23449;SDS011;11897;45.438;12.128;2023-06-26T02:25:31;3.78;;;2.85;;
23449;SDS011;11897;45.438;12.128;2023-06-26T02:27:57;4.32;;;3.00;;
23449;SDS011;11897;45.438;12.128;2023-06-26T02:30:24;5.38;;;2.90;;
23449;SDS011;11897;45.438;12.128;2023-06-26T02:32:51;5.97;;;3.13;;
23449;SDS011;11897;45.438;12.128;2023-06-26T02:35:19;5.38;;;3.25;;
23449;SDS011;11897;45.438;12.128;2023-06-26T02:37:46;4.72;;;2.42;;
23449;SDS011;11897;45.438;12.128;2023-06-26T02:40:13;5.90;;;2.63;;
23449;SDS011;11897;45.438;12.128;2023-06-26T02:42:40;4.20;;;2.70;;
23449;SDS011;11897;45.438;12.128;2023-06-26T02:45:08;7.68;;;2.70;;
23449;SDS011;11897;45.438;12.128;2023-06-26T02:47:35;9.60;;;2.80;;
23449;SDS011;11897;45.438;12.128;2023-06-26T02:50:05;6.70;;;3.05;;
23449;SDS011;11897;45.438;12.128;2023-06-26T02:52:47;4.05;;;3.05;;
23449;SDS011;11897;45.438;12.128;2023-06-26T02:55:19;4.57;;;3.03;;
23449;SDS011;11897;45.438;12.128;2023-06-26T02:57:46;5.05;;;2.90;;
23449;SDS011;11897;45.438;12.128;2023-06-26T03:00:14;5.88;;;3.03;;
23449;SDS011;11897;45.438;12.128;2023-06-26T03:02:46;5.25;;;3.00;;
23449;SDS011;11897;45.438;12.128;2023-06-26T03:05:17;6.28;;;3.10;;
23449;SDS011;11897;45.438;12.128;2023-06-26T03:07:43;5.40;;;3.55;;
23449;SDS011;11897;45.438;12.128;2023-06-26T03:10:11;5.55;;;2.88;;
23449;SDS011;11897;45.438;12.128;2023-06-26T03:12:38;6.43;;;3.13;;
23449;SDS011;11897;45.438;12.128;2023-06-26T03:15:05;7.15;;;3.08;;
23449;SDS011;11897;45.438;12.128;2023-06-26T03:17:32;4.72;;;3.10;;
23449;SDS011;11897;45.438;12.128;2023-06-26T03:20:04;6.38;;;2.88;;
23449;SDS011;11897;45.438;12.128;2023-06-26T03:22:42;3.90;;;2.80;;
23449;SDS011;11897;45.438;12.128;2023-06-26T03:25:12;5.85;;;3.50;;
23449;SDS011;11897;45.438;12.128;2023-06-26T03:27:38;4.93;;;2.92;;
23449;SDS011;11897;45.438;12.128;2023-06-26T03:30:05;5.88;;;3.50;;
23449;SDS011;11897;45.438;12.128;2023-06-26T03:32:35;4.72;;;3.20;;
23449;SDS011;11897;45.438;12.128;2023-06-26T03:35:02;5.25;;;2.92;;
23449;SDS011;11897;45.438;12.128;2023-06-26T03:37:29;4.75;;;3.08;;
23449;SDS011;11897;45.438;12.128;2023-06-26T03:39:56;5.57;;;2.45;;
23449;SDS011;11897;45.438;12.128;2023-06-26T03:42:24;4.57;;;3.00;;
23449;SDS011;11897;45.438;12.128;2023-06-26T03:44:50;3.83;;;2.30;;
23449;SDS011;11897;45.438;12.128;2023-06-26T03:47:18;5.97;;;3.13;;
23449;SDS011;11897;45.438;12.128;2023-06-26T03:49:45;8.35;;;3.20;;
23449;SDS011;11897;45.438;12.128;2023-06-26T03:52:11;4.90;;;2.70;;
23449;SDS011;11897;45.438;12.128;2023-06-26T03:54:39;3.45;;;2.67;;
23449;SDS011;11897;45.438;12.128;2023-06-26T03:57:05;5.40;;;3.35;;
23449;SDS011;11897;45.438;12.128;2023-06-26T03:59:33;5.72;;;4.00;;
23449;SDS011;11897;45.438;12.128;2023-06-26T04:02:00;5.53;;;3.70;;
23449;SDS011;11897;45.438;12.128;2023-06-26T04:04:27;6.88;;;3.88;;
23449;SDS011;11897;45.438;12.128;2023-06-26T04:06:53;8.35;;;3.70;;
23449;SDS011;11897;45.438;12.128;2023-06-26T04:09:22;3.83;;;3.17;;
23449;SDS011;11897;45.438;12.128;2023-06-26T04:11:49;7.32;;;3.65;;
23449;SDS011;11897;45.438;12.128;2023-06-26T04:14:16;4.97;;;3.25;;
23449;SDS011;11897;45.438;12.128;2023-06-26T04:16:44;5.32;;;3.25;;
23449;SDS011;11897;45.438;12.128;2023-06-26T04:19:10;7.82;;;3.70;;
23449;SDS011;11897;45.438;12.128;2023-06-26T04:21:37;6.30;;;4.05;;
23449;SDS011;11897;45.438;12.128;2023-06-26T04:24:04;4.97;;;3.60;;
23449;SDS011;11897;45.438;12.128;2023-06-26T04:26:31;5.47;;;3.45;;
23449;SDS011;11897;45.438;12.128;2023-06-26T04:28:58;8.45;;;4.13;;
23449;SDS011;11897;45.438;12.128;2023-06-26T04:31:24;6.40;;;3.40;;
23449;SDS011;11897;45.438;12.128;2023-06-26T04:33:53;5.45;;;3.97;;
23449;SDS011;11897;45.438;12.128;2023-06-26T04:36:20;8.27;;;4.00;;
23449;SDS011;11897;45.438;12.128;2023-06-26T04:38:46;8.20;;;4.07;;
23449;SDS011;11897;45.438;12.128;2023-06-26T04:41:14;6.33;;;3.80;;
23449;SDS011;11897;45.438;12.128;2023-06-26T04:43:41;6.78;;;3.88;;
23449;SDS011;11897;45.438;12.128;2023-06-26T04:46:07;6.43;;;4.00;;
23449;SDS011;11897;45.438;12.128;2023-06-26T04:48:34;8.02;;;4.70;;
23449;SDS011;11897;45.438;12.128;2023-06-26T04:51:02;6.93;;;4.30;;
23449;SDS011;11897;45.438;12.128;2023-06-26T04:53:29;10.25;;;3.78;;
23449;SDS011;11897;45.438;12.128;2023-06-26T04:55:55;7.00;;;4.50;;
23449;SDS011;11897;45.438;12.128;2023-06-26T04:58:22;8.07;;;3.95;;
23449;SDS011;11897;45.438;12.128;2023-06-26T05:00:49;7.43;;;4.20;;
23449;SDS011;11897;45.438;12.128;2023-06-26T05:03:16;6.30;;;3.70;;
23449;SDS011;11897;45.438;12.128;2023-06-26T05:05:43;11.18;;;4.22;;
23449;SDS011;11897;45.438;12.128;2023-06-26T05:08:15;6.80;;;4.43;;
23449;SDS011;11897;45.438;12.128;2023-06-26T05:10:42;5.25;;;3.42;;
23449;SDS011;11897;45.438;12.128;2023-06-26T05:13:09;4.97;;;3.83;;
23449;SDS011;11897;45.438;12.128;2023-06-26T05:15:35;5.82;;;4.32;;
23449;SDS011;11897;45.438;12.128;2023-06-26T05:18:02;6.57;;;4.47;;
23449;SDS011;11897;45.438;12.128;2023-06-26T05:20:29;6.75;;;3.63;;
23449;SDS011;11897;45.438;12.128;2023-06-26T05:22:55;8.52;;;4.28;;
23449;SDS011;11897;45.438;12.128;2023-06-26T05:25:24;7.35;;;4.82;;
23449;SDS011;11897;45.438;12.128;2023-06-26T05:27:52;7.35;;;4.03;;
23449;SDS011;11897;45.438;12.128;2023-06-26T05:30:19;5.70;;;4.15;;
23449;SDS011;11897;45.438;12.128;2023-06-26T05:32:46;6.40;;;4.38;;
23449;SDS011;11897;45.438;12.128;2023-06-26T05:35:13;6.35;;;4.38;;
23449;SDS011;11897;45.438;12.128;2023-06-26T05:37:40;9.05;;;4.50;;
23449;SDS011;11897;45.438;12.128;2023-06-26T05:40:07;6.30;;;4.05;;
23449;SDS011;11897;45.438;12.128;2023-06-26T05:42:36;6.35;;;3.90;;
23449;SDS011;11897;45.438;12.128;2023-06-26T05:45:03;6.70;;;4.18;;
23449;SDS011;11897;45.438;12.128;2023-06-26T05:47:30;8.90;;;4.50;;
23449;SDS011;11897;45.438;12.128;2023-06-26T05:49:56;5.70;;;4.25;;
23449;SDS011;11897;45.438;12.128;2023-06-26T05:52:23;5.47;;;3.80;;
23449;SDS011;11897;45.438;12.128;2023-06-26T05:54:50;7.15;;;4.53;;
23449;SDS011;11897;45.438;12.128;2023-06-26T05:57:17;5.65;;;4.43;;
23449;SDS011;11897;45.438;12.128;2023-06-26T05:59:45;6.10;;;3.95;;
23449;SDS011;11897;45.438;12.128;2023-06-26T06:02:13;5.88;;;4.00;;
23449;SDS011;11897;45.438;12.128;2023-06-26T06:04:40;5.68;;;3.72;;
23449;SDS011;11897;45.438;12.128;2023-06-26T06:07:07;8.82;;;4.47;;
23449;SDS011;11897;45.438;12.128;2023-06-26T06:09:33;4.78;;;3.70;;
23449;SDS011;11897;45.438;12.128;2023-06-26T06:12:00;6.20;;;3.78;;
23449;SDS011;11897;45.438;12.128;2023-06-26T06:14:29;7.18;;;4.20;;
23449;SDS011;11897;45.438;12.128;2023-06-26T06:16:57;6.13;;;4.15;;
23449;SDS011;11897;45.438;12.128;2023-06-26T06:19:23;5.85;;;3.60;;
23449;SDS011;11897;45.438;12.128;2023-06-26T06:21:50;5.10;;;4.15;;
23449;SDS011;11897;45.438;12.128;2023-06-26T06:24:17;9.45;;;4.60;;
23449;SDS011;11897;45.438;12.128;2023-06-26T06:26:43;7.53;;;4.32;;
23449;SDS011;11897;45.438;12.128;2023-06-26T06:29:10;7.55;;;4.07;;
23449;SDS011;11897;45.438;12.128;2023-06-26T06:31:37;8.07;;;4.93;;
23449;SDS011;11897;45.438;12.128;2023-06-26T06:34:05;7.97;;;4.38;;
23449;SDS011;11897;45.438;12.128;2023-06-26T06:36:31;6.90;;;4.32;;
23449;SDS011;11897;45.438;12.128;2023-06-26T06:38:58;6.10;;;4.57;;
23449;SDS011;11897;45.438;12.128;2023-06-26T06:41:25;5.93;;;3.83;;
23449;SDS011;11897;45.438;12.128;2023-06-26T06:43:51;10.02;;;5.05;;
23449;SDS011;11897;45.438;12.128;2023-06-26T06:46:19;6.05;;;3.50;;
23449;SDS011;11897;45.438;12.128;2023-06-26T06:48:45;6.75;;;3.65;;
23449;SDS011;11897;45.438;12.128;2023-06-26T06:51:14;6.32;;;3.90;;
23449;SDS011;11897;45.438;12.128;2023-06-26T06:53:41;4.93;;;3.95;;
23449;SDS011;11897;45.438;12.128;2023-06-26T06:56:07;5.03;;;3.80;;
23449;SDS011;11897;45.438;12.128;2023-06-26T06:58:34;7.50;;;4.05;;
23449;SDS011;11897;45.438;12.128;2023-06-26T07:01:01;5.50;;;3.88;;
23449;SDS011;11897;45.438;12.128;2023-06-26T07:03:29;4.78;;;3.70;;
23449;SDS011;11897;45.438;12.128;2023-06-26T07:05:56;6.00;;;4.75;;
23449;SDS011;11897;45.438;12.128;2023-06-26T07:08:24;4.85;;;3.65;;
23449;SDS011;11897;45.438;12.128;2023-06-26T07:10:50;5.70;;;3.40;;
23449;SDS011;11897;45.438;12.128;2023-06-26T07:13:17;5.75;;;3.83;;
23449;SDS011;11897;45.438;12.128;2023-06-26T07:15:44;5.95;;;3.90;;
23449;SDS011;11897;45.438;12.128;2023-06-26T07:18:13;7.28;;;4.00;;
23449;SDS011;11897;45.438;12.128;2023-06-26T07:20:39;5.43;;;4.10;;
23449;SDS011;11897;45.438;12.128;2023-06-26T07:23:06;5.88;;;3.55;;
23449;SDS011;11897;45.438;12.128;2023-06-26T07:25:35;7.57;;;3.70;;
23449;SDS011;11897;45.438;12.128;2023-06-26T07:28:02;4.82;;;2.83;;
23449;SDS011;11897;45.438;12.128;2023-06-26T07:30:29;5.43;;;4.05;;
23449;SDS011;11897;45.438;12.128;2023-06-26T07:32:56;5.45;;;3.80;;
23449;SDS011;11897;45.438;12.128;2023-06-26T07:35:22;8.75;;;4.50;;
23449;SDS011;11897;45.438;12.128;2023-06-26T07:37:50;9.90;;;4.22;;
23449;SDS011;11897;45.438;12.128;2023-06-26T07:40:16;5.00;;;3.28;;
23449;SDS011;11897;45.438;12.128;2023-06-26T07:42:45;5.93;;;3.90;;
23449;SDS011;11897;45.438;12.128;2023-06-26T07:45:12;4.65;;;3.25;;
23449;SDS011;11897;45.438;12.128;2023-06-26T07:47:39;4.43;;;3.20;;
23449;SDS011;11897;45.438;12.128;2023-06-26T07:50:06;9.55;;;3.83;;
23449;SDS011;11897;45.438;12.128;2023-06-26T07:52:34;5.50;;;3.25;;
23449;SDS011;11897;45.438;12.128;2023-06-26T07:55:00;4.30;;;3.33;;
23449;SDS011;11897;45.438;12.128;2023-06-26T07:57:29;4.93;;;3.17;;
23449;SDS011;11897;45.438;12.128;2023-06-26T07:59:57;8.13;;;3.25;;
23449;SDS011;11897;45.438;12.128;2023-06-26T08:02:24;4.53;;;3.20;;
23449;SDS011;11897;45.438;12.128;2023-06-26T08:04:50;4.22;;;2.63;;
23449;SDS011;11897;45.438;12.128;2023-06-26T08:07:17;5.78;;;3.03;;
23449;SDS011;11897;45.438;12.128;2023-06-26T08:09:44;3.03;;;2.50;;
23449;SDS011;11897;45.438;12.128;2023-06-26T08:12:10;3.63;;;2.55;;
23449;SDS011;11897;45.438;12.128;2023-06-26T08:14:37;6.97;;;2.78;;
23449;SDS011;11897;45.438;12.128;2023-06-26T08:17:05;3.47;;;2.95;;
23449;SDS011;11897;45.438;12.128;2023-06-26T08:19:32;7.45;;;2.97;;
23449;SDS011;11897;45.438;12.128;2023-06-26T08:21:59;3.47;;;2.55;;
23449;SDS011;11897;45.438;12.128;2023-06-26T08:24:25;4.10;;;2.70;;
23449;SDS011;11897;45.438;12.128;2023-06-26T08:26:52;6.88;;;2.88;;
23449;SDS011;11897;45.438;12.128;2023-06-26T08:29:18;6.10;;;2.70;;
23449;SDS011;11897;45.438;12.128;2023-06-26T08:31:45;3.90;;;2.50;;
23449;SDS011;11897;45.438;12.128;2023-06-26T08:34:13;5.28;;;3.15;;
23449;SDS011;11897;45.438;12.128;2023-06-26T08:36:40;6.07;;;2.85;;
23449;SDS011;11897;45.438;12.128;2023-06-26T08:39:06;3.38;;;2.75;;
23449;SDS011;11897;45.438;12.128;2023-06-26T08:41:33;3.90;;;2.85;;
23449;SDS011;11897;45.438;12.128;2023-06-26T08:44:01;2.63;;;2.42;;
23449;SDS011;11897;45.438;12.128;2023-06-26T08:46:28;4.03;;;3.10;;
23449;SDS011;11897;45.438;12.128;2023-06-26T08:48:56;3.97;;;2.85;;
23449;SDS011;11897;45.438;12.128;2023-06-26T08:51:25;5.70;;;2.38;;
23449;SDS011;11897;45.438;12.128;2023-06-26T08:53:56;5.32;;;2.78;;
23449;SDS011;11897;45.438;12.128;2023-06-26T08:56:22;4.18;;;3.17;;
23449;SDS011;11897;45.438;12.128;2023-06-26T08:58:50;6.00;;;2.50;;
23449;SDS011;11897;45.438;12.128;2023-06-26T09:01:17;5.70;;;2.88;;
23449;SDS011;11897;45.438;12.128;2023-06-26T09:03:44;4.13;;;2.80;;
23449;SDS011;11897;45.438;12.128;2023-06-26T09:06:11;3.53;;;2.65;;
23449;SDS011;11897;45.438;12.128;2023-06-26T09:08:39;6.20;;;3.17;;
23449;SDS011;11897;45.438;12.128;2023-06-26T09:11:05;7.32;;;3.38;;
23449;SDS011;11897;45.438;12.128;2023-06-26T09:13:32;3.97;;;2.75;;
23449;SDS011;11897;45.438;12.128;2023-06-26T09:15:59;4.20;;;2.58;;
23449;SDS011;11897;45.438;12.128;2023-06-26T09:18:31;4.75;;;3.38;;
23449;SDS011;11897;45.438;12.128;2023-06-26T09:20:58;4.03;;;2.97;;
23449;SDS011;11897;45.438;12.128;2023-06-26T09:23:24;5.47;;;3.58;;
23449;SDS011;11897;45.438;12.128;2023-06-26T09:25:53;5.45;;;3.60;;
23449;SDS011;11897;45.438;12.128;2023-06-26T09:28:20;4.80;;;3.72;;
23449;SDS011;11897;45.438;12.128;2023-06-26T09:30:47;6.32;;;3.30;;
23449;SDS011;11897;45.438;12.128;2023-06-26T09:33:16;5.07;;;3.75;;
23449;SDS011;11897;45.438;12.128;2023-06-26T09:35:43;4.93;;;2.95;;
23449;SDS011;11897;45.438;12.128;2023-06-26T09:38:09;5.07;;;3.13;;
23449;SDS011;11897;45.438;12.128;2023-06-26T09:40:37;4.80;;;3.63;;
23449;SDS011;11897;45.438;12.128;2023-06-26T09:43:06;5.55;;;3.30;;
23449;SDS011;11897;45.438;12.128;2023-06-26T09:45:32;5.18;;;3.05;;
23449;SDS011;11897;45.438;12.128;2023-06-26T09:48:00;6.07;;;3.38;;
23449;SDS011;11897;45.438;12.128;2023-06-26T09:50:28;4.72;;;3.10;;
23449;SDS011;11897;45.438;12.128;2023-06-26T09:52:55;3.45;;;2.85;;
23449;SDS011;11897;45.438;12.128;2023-06-26T09:55:21;5.25;;;2.78;;
23449;SDS011;11897;45.438;12.128;2023-06-26T09:57:49;4.18;;;2.83;;
23449;SDS011;11897;45.438;12.128;2023-06-26T10:00:18;4.20;;;3.08;;
23449;SDS011;11897;45.438;12.128;2023-06-26T10:02:45;4.35;;;2.72;;
23449;SDS011;11897;45.438;12.128;2023-06-26T10:05:12;3.97;;;2.80;;
23449;SDS011;11897;45.438;12.128;2023-06-26T10:07:39;3.78;;;2.70;;
23449;SDS011;11897;45.438;12.128;2023-06-26T10:10:07;4.55;;;2.53;;
23449;SDS011;11897;45.438;12.128;2023-06-26T10:12:33;3.70;;;2.45;;
23449;SDS011;11897;45.438;12.128;2023-06-26T10:15:01;3.95;;;3.20;;
23449;SDS011;11897;45.438;12.128;2023-06-26T10:17:30;5.50;;;2.63;;
23449;SDS011;11897;45.438;12.128;2023-06-26T10:19:58;4.47;;;3.15;;
23449;SDS011;11897;45.438;12.128;2023-06-26T10:22:29;4.07;;;2.70;;
23449;SDS011;11897;45.438;12.128;2023-06-26T10:24:57;4.82;;;2.90;;
23449;SDS011;11897;45.438;12.128;2023-06-26T10:27:25;3.65;;;2.90;;
23449;SDS011;11897;45.438;12.128;2023-06-26T10:29:53;4.55;;;2.95;;
23449;SDS011;11897;45.438;12.128;2023-06-26T10:32:21;4.50;;;2.60;;
23449;SDS011;11897;45.438;12.128;2023-06-26T10:34:50;3.78;;;2.63;;
23449;SDS011;11897;45.438;12.128;2023-06-26T10:37:16;4.60;;;2.83;;
23449;SDS011;11897;45.438;12.128;2023-06-26T10:39:46;3.55;;;2.65;;
23449;SDS011;11897;45.438;12.128;2023-06-26T10:42:15;3.08;;;2.33;;
23449;SDS011;11897;45.438;12.128;2023-06-26T10:44:42;3.35;;;2.22;;
23449;SDS011;11897;45.438;12.128;2023-06-26T10:47:09;5.78;;;2.95;;
23449;SDS011;11897;45.438;12.128;2023-06-26T10:49:36;2.90;;;2.50;;
23449;SDS011;11897;45.438;12.128;2023-06-26T10:52:07;3.05;;;2.55;;
23449;SDS011;11897;45.438;12.128;2023-06-26T10:54:34;3.40;;;2.70;;
23449;SDS011;11897;45.438;12.128;2023-06-26T10:57:01;3.45;;;2.47;;
23449;SDS011;11897;45.438;12.128;2023-06-26T10:59:29;3.28;;;2.50;;
23449;SDS011;11897;45.438;12.128;2023-06-26T11:01:56;3.50;;;2.83;;
23449;SDS011;11897;45.438;12.128;2023-06-26T11:04:36;3.45;;;2.75;;
23449;SDS011;11897;45.438;12.128;2023-06-26T11:07:23;3.85;;;2.75;;
23449;SDS011;11897;45.438;12.128;2023-06-26T11:09:54;3.13;;;2.50;;
23449;SDS011;11897;45.438;12.128;2023-06-26T11:15:03;3.83;;;2.80;;
23449;SDS011;11897;45.438;12.128;2023-06-26T11:17:30;5.28;;;3.10;;
23449;SDS011;11897;45.438;12.128;2023-06-26T11:19:57;3.60;;;3.05;;
23449;SDS011;11897;45.438;12.128;2023-06-26T11:22:26;7.38;;;2.97;;
23449;SDS011;11897;45.438;12.128;2023-06-26T11:24:53;4.00;;;3.22;;
23449;SDS011;11897;45.438;12.128;2023-06-26T11:27:20;4.03;;;3.10;;
23449;SDS011;11897;45.438;12.128;2023-06-26T11:29:49;5.00;;;2.85;;
23449;SDS011;11897;45.438;12.128;2023-06-26T11:32:16;3.45;;;2.97;;
23449;SDS011;11897;45.438;12.128;2023-06-26T11:34:42;4.43;;;2.92;;
23449;SDS011;11897;45.438;12.128;2023-06-26T11:37:09;7.40;;;2.85;;
23449;SDS011;11897;45.438;12.128;2023-06-26T11:39:38;4.13;;;2.78;;
23449;SDS011;11897;45.438;12.128;2023-06-26T11:42:05;3.13;;;2.22;;
23449;SDS011;11897;45.438;12.128;2023-06-26T11:44:32;3.17;;;2.25;;
23449;SDS011;11897;45.438;12.128;2023-06-26T11:47:06;5.75;;;3.28;;
23449;SDS011;11897;45.438;12.128;2023-06-26T11:49:32;4.38;;;3.13;;
23449;SDS011;11897;45.438;12.128;2023-06-26T11:51:59;3.78;;;2.92;;
23449;SDS011;11897;45.438;12.128;2023-06-26T11:54:30;3.05;;;2.67;;
23449;SDS011;11897;45.438;12.128;2023-06-26T11:56:58;4.85;;;3.33;;
23449;SDS011;11897;45.438;12.128;2023-06-26T11:59:35;6.45;;;3.10;;
23449;SDS011;11897;45.438;12.128;2023-06-26T12:02:06;4.68;;;2.78;;
23449;SDS011;11897;45.438;12.128;2023-06-26T12:04:33;3.80;;;3.10;;
23449;SDS011;11897;45.438;12.128;2023-06-26T12:07:00;3.15;;;2.75;;
23449;SDS011;11897;45.438;12.128;2023-06-26T12:09:29;5.30;;;3.28;;
23449;SDS011;11897;45.438;12.128;2023-06-26T12:11:56;4.47;;;3.08;;
23449;SDS011;11897;45.438;12.128;2023-06-26T12:14:24;5.00;;;3.42;;
23449;SDS011;11897;45.438;12.128;2023-06-26T12:16:53;4.30;;;2.85;;
23449;SDS011;11897;45.438;12.128;2023-06-26T12:19:23;3.30;;;3.00;;
23449;SDS011;11897;45.438;12.128;2023-06-26T12:21:50;3.75;;;2.83;;
23449;SDS011;11897;45.438;12.128;2023-06-26T12:24:18;4.28;;;3.10;;
23449;SDS011;11897;45.438;12.128;2023-06-26T12:26:45;7.28;;;2.75;;
23449;SDS011;11897;45.438;12.128;2023-06-26T12:29:13;4.75;;;2.85;;
23449;SDS011;11897;45.438;12.128;2023-06-26T12:31:42;3.47;;;2.95;;
23449;SDS011;11897;45.438;12.128;2023-06-26T12:34:09;6.05;;;2.88;;
23449;SDS011;11897;45.438;12.128;2023-06-26T12:36:40;5.60;;;2.97;;
23449;SDS011;11897;45.438;12.128;2023-06-26T12:39:09;4.25;;;3.13;;
23449;SDS011;11897;45.438;12.128;2023-06-26T12:41:36;3.17;;;2.60;;
23449;SDS011;11897;45.438;12.128;2023-06-26T12:44:15;3.75;;;2.78;;
23449;SDS011;11897;45.438;12.128;2023-06-26T12:46:44;3.90;;;2.75;;
23449;SDS011;11897;45.438;12.128;2023-06-26T12:49:13;3.22;;;2.60;;
23449;SDS011;11897;45.438;12.128;2023-06-26T12:51:40;2.83;;;2.30;;
23449;SDS011;11897;45.438;12.128;2023-06-26T12:54:08;5.85;;;3.08;;
23449;SDS011;11897;45.438;12.128;2023-06-26T12:56:34;4.65;;;2.80;;
23449;SDS011;11897;45.438;12.128;2023-06-26T12:59:01;4.18;;;2.70;;
23449;SDS011;11897;45.438;12.128;2023-06-26T13:01:28;3.95;;;3.10;;
23449;SDS011;11897;45.438;12.128;2023-06-26T13:03:56;5.15;;;2.65;;
23449;SDS011;11897;45.438;12.128;2023-06-26T13:06:23;3.63;;;2.75;;
23449;SDS011;11897;45.438;12.128;2023-06-26T13:08:50;3.80;;;3.00;;
23449;SDS011;11897;45.438;12.128;2023-06-26T13:11:17;4.15;;;2.63;;
23449;SDS011;11897;45.438;12.128;2023-06-26T13:13:43;6.35;;;3.03;;
23449;SDS011;11897;45.438;12.128;2023-06-26T13:16:10;4.38;;;3.03;;
23449;SDS011;11897;45.438;12.128;2023-06-26T13:18:37;3.50;;;2.72;;
23449;SDS011;11897;45.438;12.128;2023-06-26T13:21:05;4.13;;;2.85;;
23449;SDS011;11897;45.438;12.128;2023-06-26T13:23:32;4.07;;;3.10;;
23449;SDS011;11897;45.438;12.128;2023-06-26T13:25:59;16.50;;;2.78;;
23449;SDS011;11897;45.438;12.128;2023-06-26T13:28:25;3.92;;;2.97;;
23449;SDS011;11897;45.438;12.128;2023-06-26T13:30:52;4.43;;;2.70;;
23449;SDS011;11897;45.438;12.128;2023-06-26T13:33:18;3.22;;;2.90;;
23449;SDS011;11897;45.438;12.128;2023-06-26T13:35:45;4.32;;;3.40;;
23449;SDS011;11897;45.438;12.128;2023-06-26T13:38:13;4.47;;;2.90;;
23449;SDS011;11897;45.438;12.128;2023-06-26T13:40:40;6.45;;;3.25;;
23449;SDS011;11897;45.438;12.128;2023-06-26T13:43:06;4.47;;;3.13;;
23449;SDS011;11897;45.438;12.128;2023-06-26T13:45:33;4.85;;;3.30;;
23449;SDS011;11897;45.438;12.128;2023-06-26T13:48:00;3.00;;;2.50;;
23449;SDS011;11897;45.438;12.128;2023-06-26T13:50:26;5.75;;;2.58;;
23449;SDS011;11897;45.438;12.128;2023-06-26T13:52:53;3.50;;;2.97;;
23449;SDS011;11897;45.438;12.128;2023-06-26T13:55:21;3.42;;;2.83;;
23449;SDS011;11897;45.438;12.128;2023-06-26T13:57:48;3.42;;;2.72;;
23449;SDS011;11897;45.438;12.128;2023-06-26T14:00:15;4.78;;;3.10;;
23449;SDS011;11897;45.438;12.128;2023-06-26T14:02:45;3.83;;;2.63;;
23449;SDS011;11897;45.438;12.128;2023-06-26T14:05:11;3.42;;;2.78;;
23449;SDS011;11897;45.438;12.128;2023-06-26T14:07:38;3.45;;;2.80;;
23449;SDS011;11897;45.438;12.128;2023-06-26T14:10:05;4.93;;;3.03;;
23449;SDS011;11897;45.438;12.128;2023-06-26T14:12:33;3.58;;;2.83;;
23449;SDS011;11897;45.438;12.128;2023-06-26T14:15:00;6.78;;;2.85;;
23449;SDS011;11897;45.438;12.128;2023-06-26T14:17:28;3.22;;;2.63;;
23449;SDS011;11897;45.438;12.128;2023-06-26T14:19:55;3.08;;;2.78;;
23449;SDS011;11897;45.438;12.128;2023-06-26T14:22:22;3.47;;;2.63;;
23449;SDS011;11897;45.438;12.128;2023-06-26T14:24:49;6.22;;;3.00;;
23449;SDS011;11897;45.438;12.128;2023-06-26T14:27:15;2.97;;;2.70;;
23449;SDS011;11897;45.438;12.128;2023-06-26T14:29:43;6.38;;;2.90;;
23449;SDS011;11897;45.438;12.128;2023-06-26T14:32:10;3.03;;;2.58;;
23449;SDS011;11897;45.438;12.128;2023-06-26T14:34:37;3.60;;;2.75;;
23449;SDS011;11897;45.438;12.128;2023-06-26T14:37:04;4.43;;;2.42;;
23449;SDS011;11897;45.438;12.128;2023-06-26T14:39:31;3.65;;;2.65;;